Time;durP1;ratioP1;P1;durP2;ratioP2;P2;SDS_P1;SDS_P2;PMS_P1;PMS_P2;Temp;Humidity;BMP_temperature;BMP_pressure;BME280_temperature;BME280_humidity;BME280_pressure;Samples;Min_cycle;Max_cycle;Signal;HPM_P1;HPM_P2
2020/12/16 00:00:22;;;;;;;6.90;3.73;;;7.50;99.90;;;;;;5073034;28;20682;-76
2020/12/16 00:02:48;;;;;;;11.30;3.50;;;7.50;99.90;;;;;;5061553;28;20270;-76
2020/12/16 00:05:15;;;;;;;8.93;3.40;;;7.50;99.90;;;;;;5072832;28;20274;-76
2020/12/16 00:07:41;;;;;;;11.97;3.97;;;7.40;99.90;;;;;;5073083;28;20234;-76
2020/12/16 00:10:10;;;;;;;10.97;3.63;;;7.50;99.90;;;;;;5072140;28;20233;-76
2020/12/16 00:12:38;;;;;;;8.63;3.63;;;7.50;99.90;;;;;;5066022;28;20286;-76
2020/12/16 00:15:05;;;;;;;11.23;3.63;;;7.50;99.90;;;;;;5072328;28;20205;-76
2020/12/16 00:17:32;;;;;;;11.27;4.10;;;7.50;99.90;;;;;;5072822;28;20321;-76
2020/12/16 00:19:59;;;;;;;10.57;3.63;;;7.50;99.90;;;;;;5072742;28;20236;-76
2020/12/16 00:22:25;;;;;;;8.63;3.50;;;7.50;99.90;;;;;;5064744;28;20231;-76
2020/12/16 00:24:51;;;;;;;7.53;3.67;;;7.50;99.90;;;;;;5052958;28;20263;-76
2020/12/16 00:27:18;;;;;;;11.70;3.63;;;7.60;99.90;;;;;;5072367;28;20740;-76
2020/12/16 00:29:44;;;;;;;10.70;4.00;;;7.60;99.90;;;;;;5072750;28;20276;-76
2020/12/16 00:32:11;;;;;;;6.63;2.93;;;7.60;99.90;;;;;;5072856;28;20239;-76
2020/12/16 00:34:38;;;;;;;8.27;2.43;;;7.60;99.90;;;;;;5060618;28;20283;-76
2020/12/16 00:37:04;;;;;;;9.27;2.87;;;7.60;99.90;;;;;;5052874;28;20238;-76
2020/12/16 00:39:31;;;;;;;9.67;3.33;;;7.60;99.90;;;;;;5058519;28;20237;-76
2020/12/16 00:41:57;;;;;;;11.47;3.80;;;7.60;99.90;;;;;;5071939;28;20663;-76
2020/12/16 00:44:24;;;;;;;9.50;3.27;;;7.60;99.90;;;;;;5054299;28;20310;-76
2020/12/16 00:46:50;;;;;;;10.87;3.67;;;7.60;99.90;;;;;;5069427;28;20231;-76
2020/12/16 00:49:16;;;;;;;9.57;3.40;;;7.60;99.90;;;;;;5071589;28;20292;-76
2020/12/16 00:51:44;;;;;;;6.73;3.03;;;7.60;99.90;;;;;;5059985;28;20247;-76
2020/12/16 00:54:10;;;;;;;9.70;3.70;;;7.70;99.90;;;;;;5067540;28;20240;-76
2020/12/16 00:56:36;;;;;;;9.77;3.17;;;7.70;99.90;;;;;;5072007;28;20679;-76
2020/12/16 00:59:03;;;;;;;7.60;2.80;;;7.70;99.90;;;;;;5071993;28;20293;-76
2020/12/16 01:01:30;;;;;;;13.63;3.30;;;7.80;99.90;;;;;;5072155;28;20707;-76
2020/12/16 01:03:56;;;;;;;9.53;3.03;;;7.70;99.90;;;;;;5071487;28;20242;-76
2020/12/16 01:06:23;;;;;;;11.03;3.33;;;7.70;99.90;;;;;;5071765;28;20313;-76
2020/12/16 01:08:50;;;;;;;11.30;3.30;;;7.70;99.90;;;;;;5058366;28;20324;-76
2020/12/16 01:11:16;;;;;;;9.63;3.60;;;7.60;99.90;;;;;;5057811;28;20251;-76
2020/12/16 01:13:43;;;;;;;12.10;3.40;;;7.60;99.90;;;;;;5056718;28;20639;-76
2020/12/16 01:16:09;;;;;;;10.73;3.63;;;7.70;99.90;;;;;;5072293;28;20253;-76
2020/12/16 01:18:37;;;;;;;10.20;3.53;;;7.60;99.90;;;;;;5071082;28;20302;-76
2020/12/16 01:21:04;;;;;;;10.77;3.60;;;7.70;99.90;;;;;;5072239;28;20210;-76
2020/12/16 01:23:30;;;;;;;8.07;3.53;;;7.60;99.90;;;;;;5071320;28;20239;-76
2020/12/16 01:25:57;;;;;;;12.83;3.63;;;7.50;99.90;;;;;;5059379;28;20308;-77
2020/12/16 01:28:24;;;;;;;9.40;3.57;;;7.50;99.90;;;;;;5071856;28;20266;-76
2020/12/16 01:30:50;;;;;;;8.00;3.20;;;7.50;99.90;;;;;;5071855;28;20297;-76
2020/12/16 01:33:17;;;;;;;12.07;3.57;;;7.50;99.90;;;;;;5071735;28;20234;-76
2020/12/16 01:35:43;;;;;;;9.90;3.27;;;7.50;99.90;;;;;;5057014;28;20239;-76
2020/12/16 01:38:10;;;;;;;11.00;3.80;;;7.60;99.90;;;;;;5072299;28;20297;-76
2020/12/16 01:40:36;;;;;;;14.33;3.80;;;7.50;99.90;;;;;;5071426;28;20570;-76
2020/12/16 01:43:03;;;;;;;9.83;3.57;;;7.50;99.90;;;;;;5071674;28;20210;-76
2020/12/16 01:45:30;;;;;;;13.10;3.67;;;7.50;99.90;;;;;;5071449;28;20762;-76
2020/12/16 01:47:57;;;;;;;8.57;3.47;;;7.50;99.90;;;;;;5070894;28;20235;-76
2020/12/16 01:50:26;;;;;;;9.40;4.00;;;7.50;99.90;;;;;;5070443;28;20685;-76
2020/12/16 01:52:57;;;;;;;12.67;3.57;;;7.60;99.90;;;;;;5069061;28;20222;-76
2020/12/16 01:55:27;;;;;;;7.93;3.63;;;7.60;99.90;;;;;;5055677;28;20236;-76
2020/12/16 01:57:59;;;;;;;12.73;4.33;;;7.60;99.90;;;;;;5064814;28;20245;-76
2020/12/16 02:00:27;;;;;;;11.83;4.40;;;7.60;99.90;;;;;;5074510;28;20238;-76
2020/12/16 02:02:56;;;;;;;13.83;4.60;;;7.60;99.90;;;;;;5074083;28;20238;-76
2020/12/16 02:05:24;;;;;;;14.13;4.30;;;7.60;99.90;;;;;;5072018;28;20260;-85
2020/12/16 02:07:53;;;;;;;10.83;4.40;;;7.60;99.90;;;;;;5072441;28;20233;-85
2020/12/16 02:10:20;;;;;;;14.03;4.30;;;7.60;99.90;;;;;;5075289;28;20261;-85
2020/12/16 02:12:47;;;;;;;11.67;4.77;;;7.60;99.90;;;;;;5057209;28;20626;-85
2020/12/16 02:15:13;;;;;;;10.73;4.83;;;7.70;99.90;;;;;;5075268;28;20238;-85
2020/12/16 02:17:41;;;;;;;9.10;4.40;;;7.70;99.90;;;;;;5075388;28;20226;-85
2020/12/16 02:20:08;;;;;;;11.37;4.60;;;7.70;99.90;;;;;;5074917;28;20237;-85
2020/12/16 02:22:36;;;;;;;11.13;4.50;;;7.70;99.90;;;;;;5075019;28;20682;-85
2020/12/16 02:25:05;;;;;;;10.73;4.87;;;7.70;99.90;;;;;;5074198;28;20225;-85
2020/12/16 02:27:32;;;;;;;10.20;4.90;;;7.70;99.90;;;;;;5074913;28;20256;-85
2020/12/16 02:29:59;;;;;;;12.87;5.40;;;7.70;99.90;;;;;;5064772;28;20226;-85
2020/12/16 02:32:27;;;;;;;13.20;5.37;;;7.70;99.90;;;;;;5055278;28;20245;-85
2020/12/16 02:34:55;;;;;;;11.03;5.07;;;7.70;99.90;;;;;;5058580;28;20223;-85
2020/12/16 02:37:22;;;;;;;9.97;5.30;;;7.70;99.90;;;;;;5072297;28;20288;-84
2020/12/16 02:39:49;;;;;;;12.20;5.77;;;7.80;99.90;;;;;;5059869;28;20206;-85
2020/12/16 02:42:24;;;;;;;11.83;5.37;;;7.70;99.90;;;;;;5074597;28;20238;-85
2020/12/16 02:44:50;;;;;;;13.07;5.93;;;7.70;99.90;;;;;;5073018;28;20284;-85
2020/12/16 02:47:17;;;;;;;11.23;5.83;;;7.60;99.90;;;;;;5075066;28;20198;-85
2020/12/16 02:49:43;;;;;;;12.80;5.70;;;7.60;99.90;;;;;;5074602;28;20245;-85
2020/12/16 02:52:10;;;;;;;10.60;5.30;;;7.50;99.90;;;;;;5061100;28;20286;-85
2020/12/16 02:54:36;;;;;;;11.27;5.03;;;7.50;99.90;;;;;;5074721;28;20242;-85
2020/12/16 02:57:03;;;;;;;12.17;6.07;;;7.60;99.90;;;;;;5058603;28;20208;-85
2020/12/16 02:59:31;;;;;;;9.67;4.97;;;7.50;99.90;;;;;;5064585;28;20293;-85
2020/12/16 03:01:59;;;;;;;10.90;6.50;;;7.50;99.90;;;;;;5074864;28;20642;-86
2020/12/16 03:04:26;;;;;;;12.83;5.87;;;7.60;99.90;;;;;;5073979;28;20639;-86
2020/12/16 03:06:55;;;;;;;12.33;5.17;;;7.50;99.90;;;;;;5074514;28;20210;-85
2020/12/16 03:09:23;;;;;;;12.80;4.80;;;7.50;99.90;;;;;;5074432;28;20290;-85
2020/12/16 03:11:51;;;;;;;8.57;4.90;;;7.50;99.90;;;;;;5074187;28;20575;-85
2020/12/16 03:14:17;;;;;;;13.37;5.83;;;7.60;99.90;;;;;;5073483;28;20282;-85
2020/12/16 03:16:45;;;;;;;9.33;5.93;;;7.60;99.90;;;;;;5054319;28;20337;-85
2020/12/16 03:19:11;;;;;;;11.13;5.37;;;7.50;99.90;;;;;;5070421;28;20287;-85
2020/12/16 03:21:38;;;;;;;9.63;5.73;;;7.60;99.90;;;;;;5067790;28;20520;-84
2020/12/16 03:24:05;;;;;;;6.67;4.30;;;7.60;99.90;;;;;;5067772;28;20214;-85
2020/12/16 03:26:31;;;;;;;12.40;5.53;;;7.60;99.90;;;;;;5068012;28;20313;-85
2020/12/16 03:28:57;;;;;;;8.60;4.63;;;7.60;99.90;;;;;;5062704;28;20705;-85
2020/12/16 03:31:24;;;;;;;7.40;4.30;;;7.60;99.90;;;;;;5054345;28;20283;-84
2020/12/16 03:33:52;;;;;;;10.23;5.40;;;7.60;99.90;;;;;;5058657;28;20249;-85
2020/12/16 03:36:19;;;;;;;8.23;4.93;;;7.60;99.90;;;;;;5074218;28;20222;-85
2020/12/16 03:38:47;;;;;;;10.37;4.97;;;7.60;99.90;;;;;;5056579;28;20237;-85
2020/12/16 03:41:15;;;;;;;9.37;4.53;;;7.60;99.90;;;;;;5072968;28;20284;-85
2020/12/16 03:43:45;;;;;;;10.87;4.10;;;7.60;99.90;;;;;;5073207;28;20235;-85
2020/12/16 03:46:12;;;;;;;7.13;4.17;;;7.70;99.90;;;;;;5066324;28;20664;-84
2020/12/16 03:48:40;;;;;;;7.53;3.77;;;7.70;99.90;;;;;;5061121;28;20632;-84
2020/12/16 03:51:09;;;;;;;11.97;4.97;;;7.70;99.90;;;;;;5074005;28;20231;-85
2020/12/16 03:53:36;;;;;;;9.17;4.20;;;7.70;99.90;;;;;;5073369;28;20238;-84
2020/12/16 03:56:06;;;;;;;8.90;4.60;;;7.60;99.90;;;;;;5073634;28;20230;-85
2020/12/16 03:58:33;;;;;;;6.83;4.17;;;7.60;99.90;;;;;;5072150;28;20776;-85
2020/12/16 04:01:04;;;;;;;8.13;3.97;;;7.70;99.90;;;;;;5071898;28;20234;-85
2020/12/16 04:03:31;;;;;;;7.43;3.70;;;7.60;99.90;;;;;;5053583;28;20207;-84
2020/12/16 04:05:57;;;;;;;5.93;4.03;;;7.60;99.90;;;;;;5063275;28;20216;-84
2020/12/16 04:08:25;;;;;;;5.83;4.00;;;7.60;99.90;;;;;;5073677;28;20226;-84
2020/12/16 04:10:51;;;;;;;7.20;3.53;;;7.70;99.90;;;;;;5054788;28;20231;-84
2020/12/16 04:13:18;;;;;;;6.87;3.70;;;7.70;99.90;;;;;;5072399;28;20241;-85
2020/12/16 04:15:45;;;;;;;8.57;4.00;;;7.60;99.90;;;;;;5062229;28;20688;-85
2020/12/16 04:18:11;;;;;;;10.97;4.07;;;7.60;99.90;;;;;;5053179;28;20339;-84
2020/12/16 04:20:38;;;;;;;4.57;3.07;;;7.60;99.90;;;;;;5053554;28;20206;-84
2020/12/16 04:23:05;;;;;;;8.33;3.57;;;7.60;99.90;;;;;;5060271;28;20207;-84
2020/12/16 04:25:32;;;;;;;9.53;3.20;;;7.60;99.90;;;;;;5072540;28;20635;-84
2020/12/16 04:27:58;;;;;;;6.27;4.17;;;7.60;99.90;;;;;;5072510;28;20287;-85
2020/12/16 04:30:25;;;;;;;8.10;3.30;;;7.50;99.90;;;;;;5072622;28;20222;-84
2020/12/16 04:32:56;;;;;;;6.90;3.90;;;7.50;99.90;;;;;;5054279;28;20225;-85
2020/12/16 04:35:23;;;;;;;5.87;3.20;;;7.50;99.90;;;;;;5072924;28;20246;-84
2020/12/16 04:37:50;;;;;;;5.80;3.43;;;7.40;99.90;;;;;;5063460;28;20251;-85
2020/12/16 04:40:16;;;;;;;6.33;3.53;;;7.40;99.90;;;;;;5072572;28;20296;-85
2020/12/16 04:42:44;;;;;;;5.37;3.50;;;7.50;99.90;;;;;;5071964;28;20729;-84
2020/12/16 04:45:11;;;;;;;8.40;3.83;;;7.50;99.90;;;;;;5064339;28;20313;-84
2020/12/16 04:47:38;;;;;;;6.80;3.87;;;7.60;99.90;;;;;;5052698;28;20242;-84
2020/12/16 04:50:06;;;;;;;5.00;3.50;;;7.60;99.90;;;;;;5068091;28;20233;-85
2020/12/16 04:52:34;;;;;;;7.87;3.73;;;7.50;99.90;;;;;;5054704;28;20199;-84
2020/12/16 04:55:01;;;;;;;4.60;3.63;;;7.50;99.90;;;;;;5072526;28;20234;-84
2020/12/16 04:57:27;;;;;;;5.13;2.93;;;7.60;99.90;;;;;;5072609;28;20209;-85
2020/12/16 04:59:58;;;;;;;7.60;3.53;;;7.70;99.90;;;;;;5072572;28;20236;-85
2020/12/16 05:02:24;;;;;;;6.37;3.37;;;7.60;99.90;;;;;;5059505;28;20196;-84
2020/12/16 05:04:53;;;;;;;5.40;3.47;;;7.50;99.90;;;;;;5052238;28;20311;-85
2020/12/16 05:07:29;;;;;;;5.00;3.43;;;7.40;99.90;;;;;;5034586;28;20206;-85
2020/12/16 05:09:56;;;;;;;3.63;3.07;;;7.40;99.90;;;;;;5071355;28;20240;-85
2020/12/16 05:12:23;;;;;;;6.20;2.87;;;7.60;99.90;;;;;;5071162;28;20666;-85
2020/12/16 05:14:49;;;;;;;5.73;3.30;;;7.60;99.90;;;;;;5071833;28;20241;-85
2020/12/16 05:17:16;;;;;;;5.47;3.17;;;7.60;99.90;;;;;;5071933;28;20311;-85
2020/12/16 05:19:44;;;;;;;6.30;2.43;;;7.70;99.90;;;;;;5072457;28;20225;-83
2020/12/16 05:22:22;;;;;;;5.13;3.10;;;7.60;99.90;;;;;;5072329;28;20264;-84
2020/12/16 05:24:58;;;;;;;4.73;3.00;;;7.70;99.90;;;;;;5064167;28;20261;-84
2020/12/16 05:27:27;;;;;;;4.80;2.77;;;7.60;99.90;;;;;;5071826;28;20275;-84
2020/12/16 05:29:56;;;;;;;6.33;3.03;;;7.60;99.90;;;;;;5072334;28;20193;-84
2020/12/16 05:32:27;;;;;;;5.03;3.10;;;7.70;99.90;;;;;;5072073;28;20244;-85
2020/12/16 05:34:55;;;;;;;5.37;2.50;;;7.60;99.90;;;;;;5072662;28;20615;-85
2020/12/16 05:37:32;;;;;;;6.07;3.03;;;7.60;99.90;;;;;;5072201;28;20232;-84
2020/12/16 05:40:08;;;;;;;4.70;2.80;;;7.60;99.90;;;;;;5071904;28;20682;-83
2020/12/16 05:42:34;;;;;;;6.27;2.87;;;7.50;99.90;;;;;;5071820;28;20230;-84
2020/12/16 05:45:09;;;;;;;6.20;3.07;;;7.50;99.90;;;;;;5072019;28;20257;-84
2020/12/16 05:47:39;;;;;;;5.07;2.73;;;7.50;99.90;;;;;;5071496;28;20238;-84
2020/12/16 05:50:18;;;;;;;5.53;3.17;;;7.40;99.90;;;;;;5071909;28;20290;-84
2020/12/16 05:52:46;;;;;;;4.50;3.00;;;7.40;99.90;;;;;;5072139;28;20266;-84
2020/12/16 05:55:25;;;;;;;5.53;2.93;;;7.30;99.90;;;;;;5071860;28;20191;-84
2020/12/16 05:58:06;;;;;;;4.60;2.80;;;7.40;99.90;;;;;;5072007;28;20238;-84
2020/12/16 06:00:42;;;;;;;5.70;3.20;;;7.40;99.90;;;;;;5069101;28;20202;-84
2020/12/16 06:03:16;;;;;;;3.83;2.87;;;7.40;99.90;;;;;;5071478;28;20618;-84
2020/12/16 06:05:46;;;;;;;4.40;2.93;;;7.40;99.90;;;;;;5063397;28;20218;-82
2020/12/16 06:08:12;;;;;;;5.53;3.40;;;7.40;99.90;;;;;;5051767;28;20578;-82
2020/12/16 06:10:42;;;;;;;4.23;2.80;;;7.40;99.90;;;;;;5051526;28;20677;-82
2020/12/16 06:13:12;;;;;;;5.90;3.43;;;7.40;99.90;;;;;;5051664;28;20211;-83
2020/12/16 06:15:52;;;;;;;5.60;3.60;;;7.40;99.90;;;;;;5040591;28;20209;-83
2020/12/16 06:18:21;;;;;;;4.80;3.27;;;7.40;99.90;;;;;;5053386;28;20205;-83
2020/12/16 06:20:48;;;;;;;4.90;3.70;;;7.30;99.90;;;;;;5034509;28;20241;-83
2020/12/16 06:23:32;;;;;;;7.00;3.40;;;7.30;99.90;;;;;;5059522;28;20246;-83
2020/12/16 06:26:00;;;;;;;5.10;3.43;;;7.30;99.90;;;;;;5070577;28;20272;-83
2020/12/16 06:28:28;;;;;;;5.33;3.03;;;7.30;99.90;;;;;;5063102;28;20266;-81
2020/12/16 06:30:58;;;;;;;7.40;3.10;;;7.40;99.90;;;;;;5051881;28;20245;-83
2020/12/16 06:33:35;;;;;;;5.80;3.47;;;7.40;99.90;;;;;;5066385;28;20233;-82
2020/12/16 06:36:04;;;;;;;4.17;3.17;;;7.40;99.90;;;;;;5070595;28;20198;-81
2020/12/16 06:38:39;;;;;;;4.57;3.20;;;7.30;99.90;;;;;;5064809;28;20253;-83
2020/12/16 06:41:12;;;;;;;5.13;3.40;;;7.30;99.90;;;;;;5065951;28;20248;-83
2020/12/16 06:43:44;;;;;;;4.03;3.10;;;7.40;99.90;;;;;;5074801;28;20555;-83
2020/12/16 06:46:45;;;;;;;4.20;3.20;;;7.40;99.90;;;;;;5075027;28;20320;-83
2020/12/16 06:49:32;;;;;;;4.93;3.13;;;7.40;99.90;;;;;;5074815;28;20205;-83
2020/12/16 06:52:00;;;;;;;6.00;3.17;;;7.40;99.90;;;;;;5074015;28;20653;-82
2020/12/16 06:54:35;;;;;;;4.47;2.93;;;7.40;99.90;;;;;;5073864;28;20248;-82
2020/12/16 06:57:16;;;;;;;5.63;3.33;;;7.40;99.90;;;;;;5073006;28;20771;-82
2020/12/16 06:59:48;;;;;;;4.23;3.10;;;7.40;99.90;;;;;;5074410;28;20291;-83
2020/12/16 07:02:21;;;;;;;4.23;3.17;;;7.50;99.90;;;;;;5056315;28;20237;-82
2020/12/16 07:04:49;;;;;;;5.07;3.43;;;7.50;99.90;;;;;;5073174;28;20637;-83
2020/12/16 07:07:58;;;;;;;5.07;2.87;;;7.50;99.90;;;;;;5073870;28;20207;-82
2020/12/16 07:10:48;;;;;;;5.43;3.20;;;7.50;99.90;;;;;;4985529;28;20248;-82
2020/12/16 07:13:17;;;;;;;5.43;3.27;;;7.50;99.90;;;;;;4990621;28;20843;-83
2020/12/16 07:15:45;;;;;;;5.20;3.00;;;7.50;99.90;;;;;;4984605;28;20212;-82
2020/12/16 07:18:40;;;;;;;3.43;2.23;;;7.50;99.90;;;;;;4990497;28;20208;-82
2020/12/16 07:21:24;;;;;;;5.73;3.00;;;7.50;99.90;;;;;;4983479;28;20247;-82
2020/12/16 07:23:53;;;;;;;4.63;2.97;;;7.50;99.90;;;;;;4992014;28;20213;-82
2020/12/16 07:26:24;;;;;;;6.23;2.93;;;7.60;99.90;;;;;;4991806;28;20317;-81
2020/12/16 07:28:50;;;;;;;3.83;2.63;;;7.50;99.90;;;;;;4991013;28;20315;-82
2020/12/16 07:31:17;;;;;;;4.13;2.90;;;7.60;99.90;;;;;;4990596;28;20624;-81
2020/12/16 07:33:44;;;;;;;4.40;3.03;;;7.60;99.90;;;;;;4991524;28;20230;-81
2020/12/16 07:36:11;;;;;;;3.47;2.90;;;7.60;99.90;;;;;;4990522;28;20642;-81
2020/12/16 07:38:46;;;;;;;4.27;3.07;;;7.70;99.90;;;;;;4983652;28;20668;-81
2020/12/16 07:41:30;;;;;;;4.83;2.70;;;7.60;99.90;;;;;;4977162;28;20700;-81
2020/12/16 07:43:59;;;;;;;3.60;2.57;;;7.70;99.90;;;;;;4986216;28;20292;-81
2020/12/16 07:46:26;;;;;;;5.10;2.80;;;7.70;99.90;;;;;;5006545;28;20225;-81
2020/12/16 07:48:53;;;;;;;4.30;2.37;;;7.80;99.90;;;;;;5051909;28;20742;-81
2020/12/16 07:51:20;;;;;;;4.40;2.60;;;7.90;99.90;;;;;;5050078;28;20300;-82
2020/12/16 07:53:50;;;;;;;4.60;2.67;;;7.80;99.90;;;;;;5052339;28;20227;-81
2020/12/16 07:56:17;;;;;;;4.10;2.80;;;7.90;99.90;;;;;;5052254;28;20208;-82
2020/12/16 07:58:44;;;;;;;4.20;2.70;;;7.80;99.90;;;;;;5051472;28;20284;-82
2020/12/16 08:01:12;;;;;;;4.40;2.90;;;7.80;99.90;;;;;;5043370;28;20215;-82
2020/12/16 08:03:40;;;;;;;4.13;2.97;;;7.80;99.90;;;;;;5049803;28;20231;-83
2020/12/16 08:06:08;;;;;;;4.73;2.60;;;7.70;99.90;;;;;;5038168;28;20254;-82
2020/12/16 08:08:43;;;;;;;4.13;2.57;;;7.70;99.90;;;;;;5052096;28;20199;-83
2020/12/16 08:11:22;;;;;;;4.87;2.97;;;7.80;99.90;;;;;;5048427;28;21864;-82
2020/12/16 08:13:49;;;;;;;4.23;2.80;;;7.90;99.90;;;;;;5045794;28;20685;-82
2020/12/16 08:16:16;;;;;;;4.63;2.63;;;7.90;99.90;;;;;;5051350;28;20200;-82
2020/12/16 08:18:43;;;;;;;4.60;2.90;;;7.90;99.90;;;;;;5051549;28;20230;-82
2020/12/16 08:21:17;;;;;;;4.70;2.80;;;7.90;99.90;;;;;;5051922;28;20241;-82
2020/12/16 08:23:44;;;;;;;5.60;2.80;;;8.00;99.90;;;;;;5052130;28;20631;-82
2020/12/16 08:26:11;;;;;;;4.80;2.77;;;8.10;99.90;;;;;;5051349;28;20262;-82
2020/12/16 08:28:38;;;;;;;5.03;3.10;;;8.00;99.90;;;;;;5062351;28;20310;-82
2020/12/16 08:31:05;;;;;;;4.80;2.53;;;8.20;99.90;;;;;;5069276;28;20286;-82
2020/12/16 08:33:32;;;;;;;4.80;3.10;;;8.30;99.90;;;;;;5069867;28;20210;-83
2020/12/16 08:36:01;;;;;;;2.70;2.23;;;8.50;99.90;;;;;;5061286;28;20203;-84
2020/12/16 08:38:30;;;;;;;3.77;2.83;;;8.60;99.90;;;;;;5061524;28;20199;-82
2020/12/16 08:40:58;;;;;;;4.67;2.83;;;8.70;99.90;;;;;;5063744;28;20229;-82
2020/12/16 08:43:28;;;;;;;3.87;2.80;;;8.80;99.90;;;;;;5068794;28;20274;-82
2020/12/16 08:46:05;;;;;;;4.33;2.47;;;8.90;99.90;;;;;;5066819;28;20218;-82
2020/12/16 08:48:42;;;;;;;4.37;2.47;;;9.20;99.90;;;;;;5063750;28;20246;-83
2020/12/16 08:51:11;;;;;;;3.53;2.90;;;9.50;99.90;;;;;;5066895;28;20203;-82
2020/12/16 08:53:51;;;;;;;4.33;2.40;;;9.80;99.90;;;;;;5070075;28;20230;-82
2020/12/16 08:56:26;;;;;;;3.53;2.40;;;9.70;99.90;;;;;;5070936;28;20693;-83
2020/12/16 08:59:11;;;;;;;3.37;2.50;;;9.80;99.90;;;;;;5056470;28;20234;-82
2020/12/16 09:01:41;;;;;;;3.33;2.30;;;10.10;99.90;;;;;;5061495;28;20230;-84
2020/12/16 09:04:08;;;;;;;3.30;2.20;;;10.20;99.90;;;;;;5066850;28;20238;-83
2020/12/16 09:06:35;;;;;;;4.07;1.93;;;9.80;99.90;;;;;;5069528;28;20303;-82
2020/12/16 09:09:12;;;;;;;3.00;2.10;;;10.20;99.90;;;;;;5058570;28;20611;-83
2020/12/16 09:11:46;;;;;;;4.13;2.20;;;10.60;99.90;;;;;;5066665;28;20573;-83
2020/12/16 09:14:12;;;;;;;3.67;1.53;;;10.90;99.90;;;;;;5063485;28;20225;-82
2020/12/16 09:16:40;;;;;;;2.73;2.20;;;10.70;99.90;;;;;;5071275;28;20223;-82
2020/12/16 09:19:06;;;;;;;2.30;1.80;;;10.90;99.90;;;;;;5071773;28;20284;-83
2020/12/16 09:21:35;;;;;;;2.60;2.07;;;10.70;99.90;;;;;;5067184;28;20290;-83
2020/12/16 09:24:02;;;;;;;3.30;2.00;;;10.30;99.90;;;;;;5067223;28;20202;-82
2020/12/16 09:26:37;;;;;;;2.27;1.80;;;10.10;99.90;;;;;;5067600;28;20331;-82
2020/12/16 09:29:14;;;;;;;2.90;1.80;;;10.10;99.90;;;;;;5068660;28;20267;-82
2020/12/16 09:31:41;;;;;;;4.70;2.43;;;10.20;99.90;;;;;;5061261;28;20231;-82
2020/12/16 09:34:08;;;;;;;3.87;2.00;;;10.30;99.90;;;;;;5062433;28;20627;-82
2020/12/16 09:36:34;;;;;;;2.47;1.97;;;10.00;99.90;;;;;;5067232;28;20274;-82
2020/12/16 09:39:03;;;;;;;2.83;2.10;;;10.00;99.90;;;;;;5065722;28;20231;-82
2020/12/16 09:41:45;;;;;;;3.77;2.00;;;10.10;99.90;;;;;;5069978;28;20242;-82
2020/12/16 09:44:29;;;;;;;5.83;2.20;;;10.10;99.90;;;;;;5066052;28;20231;-82
2020/12/16 09:47:14;;;;;;;2.77;2.30;;;10.20;99.90;;;;;;5067981;28;20698;-83
2020/12/16 09:49:42;;;;;;;4.10;2.33;;;10.30;99.90;;;;;;5063921;28;20218;-82
2020/12/16 09:52:25;;;;;;;3.40;2.27;;;10.00;99.90;;;;;;5066664;28;20256;-83
2020/12/16 09:54:52;;;;;;;3.53;2.30;;;10.20;99.90;;;;;;5067525;28;20237;-83
2020/12/16 09:57:22;;;;;;;2.83;2.20;;;9.90;99.90;;;;;;5059937;28;20635;-83
2020/12/16 09:59:48;;;;;;;3.30;2.37;;;10.00;99.90;;;;;;5069811;28;20727;-83
2020/12/16 10:02:17;;;;;;;3.70;2.20;;;10.00;99.90;;;;;;5066009;28;20628;-83
2020/12/16 10:04:43;;;;;;;4.40;2.50;;;10.20;99.90;;;;;;5061091;28;20743;-83
2020/12/16 10:07:10;;;;;;;4.73;2.60;;;10.10;99.90;;;;;;5063316;28;20928;-83
2020/12/16 10:09:38;;;;;;;4.33;2.00;;;9.90;99.90;;;;;;5066425;28;20303;-84
2020/12/16 10:12:05;;;;;;;2.47;1.90;;;9.80;99.90;;;;;;5066280;28;20228;-84
2020/12/16 10:14:31;;;;;;;2.90;1.90;;;9.70;99.90;;;;;;5071034;28;20194;-85
2020/12/16 10:16:58;;;;;;;3.53;2.13;;;9.80;99.90;;;;;;5072340;28;20289;-85
2020/12/16 10:19:27;;;;;;;3.67;2.13;;;9.90;99.90;;;;;;5067556;28;20678;-84
2020/12/16 10:21:53;;;;;;;4.20;2.27;;;9.80;99.90;;;;;;5064664;28;20206;-84
2020/12/16 10:24:20;;;;;;;4.97;2.77;;;9.90;99.90;;;;;;5075733;28;20223;-83
2020/12/16 10:26:47;;;;;;;3.93;1.90;;;9.90;99.90;;;;;;5071169;28;20275;-84
2020/12/16 10:29:16;;;;;;;4.07;2.07;;;10.10;99.90;;;;;;5066866;28;20710;-84
2020/12/16 10:31:47;;;;;;;2.57;1.97;;;10.00;99.90;;;;;;5070621;28;20206;-84
2020/12/16 10:34:14;;;;;;;1.93;1.70;;;10.10;99.90;;;;;;5071626;28;20581;-84
2020/12/16 10:36:41;;;;;;;2.23;1.97;;;10.10;99.90;;;;;;5056002;28;20565;-84
2020/12/16 10:39:08;;;;;;;6.10;2.20;;;10.00;99.90;;;;;;5069520;28;20238;-84
2020/12/16 10:41:35;;;;;;;3.10;2.10;;;10.10;99.90;;;;;;5068624;28;20198;-84
2020/12/16 10:44:01;;;;;;;2.77;1.90;;;10.10;99.90;;;;;;5071145;28;20219;-84
2020/12/16 10:46:28;;;;;;;3.40;2.10;;;9.90;99.90;;;;;;5074330;28;20268;-83
2020/12/16 10:48:54;;;;;;;3.40;2.20;;;9.90;99.90;;;;;;5066116;28;20735;-83
2020/12/16 10:51:21;;;;;;;3.20;2.30;;;9.90;99.90;;;;;;5069205;28;20286;-84
2020/12/16 10:53:48;;;;;;;3.20;2.50;;;9.90;99.90;;;;;;5070475;28;20231;-83
2020/12/16 10:56:14;;;;;;;3.83;2.47;;;10.00;99.90;;;;;;5073505;28;20231;-83
2020/12/16 10:58:42;;;;;;;4.60;2.67;;;9.80;99.90;;;;;;5073650;28;20228;-84
2020/12/16 11:01:08;;;;;;;3.53;2.70;;;9.80;99.90;;;;;;5069648;28;20286;-83
2020/12/16 11:03:35;;;;;;;4.53;2.60;;;9.70;99.90;;;;;;5072643;28;20634;-83
2020/12/16 11:06:01;;;;;;;3.80;2.67;;;9.70;99.90;;;;;;5073315;28;20226;-83
2020/12/16 11:08:27;;;;;;;4.33;2.80;;;9.70;99.90;;;;;;5072165;28;20298;-83
2020/12/16 11:10:54;;;;;;;4.53;2.87;;;9.70;99.90;;;;;;5064917;28;20661;-83
2020/12/16 11:13:21;;;;;;;3.77;2.97;;;9.80;99.90;;;;;;5069163;28;20205;-83
2020/12/16 11:15:48;;;;;;;3.60;2.53;;;9.90;99.90;;;;;;5069796;28;20227;-84
2020/12/16 11:18:14;;;;;;;4.50;2.73;;;10.00;99.90;;;;;;5067699;28;20233;-82
2020/12/16 11:20:41;;;;;;;2.70;2.40;;;10.10;99.90;;;;;;5075235;28;20591;-82
2020/12/16 11:23:07;;;;;;;3.10;2.50;;;10.20;99.90;;;;;;5070793;28;20271;-82
2020/12/16 11:25:34;;;;;;;4.07;2.70;;;10.20;99.90;;;;;;5075808;28;20291;-81
2020/12/16 11:28:03;;;;;;;3.87;2.50;;;10.10;99.90;;;;;;5070287;28;20340;-82
2020/12/16 11:30:30;;;;;;;3.03;2.40;;;10.10;99.90;;;;;;5072378;28;20898;-81
2020/12/16 11:32:57;;;;;;;3.20;2.33;;;10.10;99.90;;;;;;5068623;28;20225;-84
2020/12/16 11:35:23;;;;;;;2.73;2.27;;;10.00;99.90;;;;;;5070823;28;20233;-81
2020/12/16 11:37:50;;;;;;;3.60;2.30;;;10.20;99.90;;;;;;5070146;28;20277;-82
2020/12/16 11:40:17;;;;;;;2.93;2.27;;;10.10;99.90;;;;;;5065237;28;20257;-82
2020/12/16 11:42:43;;;;;;;3.00;2.40;;;10.20;99.90;;;;;;5066766;28;20295;-82
2020/12/16 11:45:11;;;;;;;3.00;2.40;;;10.20;99.90;;;;;;5064379;28;20625;-82
2020/12/16 11:47:38;;;;;;;3.30;2.40;;;10.20;99.90;;;;;;5065459;28;20238;-82
2020/12/16 11:50:07;;;;;;;3.80;2.87;;;10.20;99.90;;;;;;5070027;28;20285;-81
2020/12/16 11:52:33;;;;;;;2.83;2.30;;;10.20;99.90;;;;;;5060029;28;20206;-82
2020/12/16 11:55:00;;;;;;;3.93;2.63;;;10.20;99.90;;;;;;5065497;28;20242;-82
2020/12/16 11:57:26;;;;;;;4.63;2.90;;;10.30;99.90;;;;;;5071259;28;20238;-81
2020/12/16 11:59:53;;;;;;;4.50;2.90;;;10.20;99.90;;;;;;5063807;28;20254;-81
2020/12/16 12:02:20;;;;;;;3.37;2.70;;;10.10;99.90;;;;;;5065827;28;20236;-81
2020/12/16 12:04:48;;;;;;;3.40;2.50;;;10.10;99.90;;;;;;5065854;28;20204;-82
2020/12/16 12:07:16;;;;;;;4.47;2.77;;;10.10;99.90;;;;;;5064924;28;20355;-81
2020/12/16 12:09:42;;;;;;;3.40;2.87;;;10.10;99.90;;;;;;5069079;28;20234;-83
2020/12/16 12:12:08;;;;;;;4.00;3.00;;;10.10;99.90;;;;;;5070371;28;20279;-82
2020/12/16 12:14:35;;;;;;;3.93;2.80;;;10.10;99.90;;;;;;5062778;28;20227;-82
2020/12/16 12:17:01;;;;;;;2.97;2.50;;;10.30;99.90;;;;;;5069579;28;20226;-82
2020/12/16 12:19:30;;;;;;;5.03;2.97;;;10.10;99.90;;;;;;5070937;28;20691;-81
2020/12/16 12:21:57;;;;;;;5.20;3.30;;;10.20;99.90;;;;;;5065493;28;20199;-82
2020/12/16 12:24:24;;;;;;;5.70;2.80;;;10.20;99.90;;;;;;5070060;28;20215;-82
2020/12/16 12:26:51;;;;;;;3.20;2.53;;;10.30;99.90;;;;;;5062966;28;20246;-81
2020/12/16 12:29:18;;;;;;;3.83;2.93;;;10.30;99.90;;;;;;5071574;28;20269;-82
2020/12/16 12:31:45;;;;;;;4.10;3.17;;;10.20;99.90;;;;;;5066046;28;20250;-82
2020/12/16 12:34:11;;;;;;;4.03;2.93;;;10.40;99.90;;;;;;5065160;28;20270;-82
2020/12/16 12:36:38;;;;;;;3.87;3.00;;;10.50;99.90;;;;;;5070511;28;20219;-82
2020/12/16 12:39:05;;;;;;;4.07;2.90;;;10.50;99.90;;;;;;5059650;28;20235;-83
2020/12/16 12:41:33;;;;;;;3.20;2.57;;;10.50;99.90;;;;;;5071328;28;20240;-82
2020/12/16 12:44:00;;;;;;;4.60;2.90;;;10.40;99.90;;;;;;5066419;28;20278;-82
2020/12/16 12:46:26;;;;;;;4.77;2.70;;;10.40;99.90;;;;;;5070019;28;20302;-82
2020/12/16 12:48:53;;;;;;;3.50;3.10;;;10.40;99.90;;;;;;5067115;28;20317;-82
2020/12/16 12:51:22;;;;;;;3.27;2.97;;;10.50;99.90;;;;;;5056433;28;20196;-81
2020/12/16 12:53:49;;;;;;;3.27;2.80;;;10.40;99.90;;;;;;5062684;28;20567;-82
2020/12/16 12:56:17;;;;;;;4.60;3.20;;;10.40;99.90;;;;;;5068078;28;20296;-83
2020/12/16 12:58:45;;;;;;;4.50;3.13;;;10.40;99.90;;;;;;5066681;28;20210;-82
2020/12/16 13:01:11;;;;;;;4.00;3.10;;;10.40;99.90;;;;;;5063160;28;20643;-82